Saint Charles, South Dakota
Current Conditions -  °F | °C
As of 3:53 AM on Monday 20 Oct 2014 (Local Time) from KICR Reporting Station
Clear Clear  
Wind Chill: 47°   Ceiling: Unl
Heat Index: 49°   Visibility: 10mi
Dew Point: 36°   Wind: 5mph
Humidity: 61%   Direction: 240°WSW
Pressure: 30.07"   Gusts: NA
Location:  43.09°N, 99.1°W
Report Text: KICR 200853Z AUTO 24004KT 10SM CLR 09/02 A3007 RMK AO2 SLP176 T00940022 50005
Loading
Personal Weather Stations






























Interactive Weather Map New forecast layout! Learn more

10-Day Weather Forecast

Advertisements
Track Severe Weather on mobile